METAR AND TAF INFORMATION
METAR FOR FMMI
ADDS - METARS form results

(0732 UTC 17 October 2021)
Data provider http://aviationweather.gov/metar/data/
 
METAR text: FMMI 170730Z 11011KT 080V170 9999 BKN020 24/12 Q1022 NOSIG
Conditions at: FMMI (ANTANANARIVO/IVA, KM) observed 0730 UTC 17 October 2021
Temperature: 24.0°C (75°F)
Dewpoint: 12.0°C (54°F) [RH = 47%]
Pressure (altimeter): 30.18 inches Hg (1022.0 mb)
Winds: from the ESE (110 degrees) at 13 MPH (11 knots; 5.7 m/s)
Visibility: 6 or more miles (10+ km)
Ceiling: 2000 feet AGL
Clouds: broken clouds at 2000 feet AGL
Weather: no significant weather observed at this time

METAR text: FMMI 170700Z 11012KT 070V160 9999 BKN020 23/12 Q1023 NOSIG
Conditions at: FMMI (ANTANANARIVO/IVA, KM) observed 0700 UTC 17 October 2021
Temperature: 23.0°C (73°F)
Dewpoint: 12.0°C (54°F) [RH = 50%]
Pressure (altimeter): 30.21 inches Hg (1023.0 mb)
Winds: from the ESE (110 degrees) at 14 MPH (12 knots; 6.2 m/s)
Visibility: 6 or more miles (10+ km)
Ceiling: 2000 feet AGL
Clouds: broken clouds at 2000 feet AGL
Weather: no significant weather observed at this time

Forecast for: FMMI (ANTANANARIVO/IVA, KM)
Text: TAF FMMI 170500Z 1706/1812 14003KT 9999 FEW017 SCT020
Forecast period: 0600 to 0800 UTC 17 October 2021
Forecast type: FROM: standard forecast or significant change
Winds: from the SE (140 degrees) at 3 MPH (3 knots; 1.5 m/s)
Visibility: 6 or more miles (10+ km)
Ceiling: at least 12,000 feet AGL
Clouds: few clouds at 1700 feet AGL
scattered clouds at 2000 feet AGL
Weather: no significant weather forecast for this period
Text: BECMG 1708/1710 14013KT
Forecast period: 0800 to 2000 UTC 17 October 2021
Forecast type: BECOMING: Conditions expected to become as follows by 1000 UTC 17 October 2021
Winds: from the SE (140 degrees) at 15 MPH (13 knots; 6.7 m/s)
Visibility: 6 or more miles (10+ km)
Ceiling: at least 12,000 feet AGL
Clouds: few clouds at 1700 feet AGL
scattered clouds at 2000 feet AGL
Weather: no significant weather forecast for this period
Text: BECMG 1720/1723 14003KT
Forecast period: 2000 UTC 17 October 2021 to 1200 UTC 18 October 2021
Forecast type: BECOMING: Conditions expected to become as follows by 2300 UTC 17 October 2021
Winds: from the SE (140 degrees) at 3 MPH (3 knots; 1.5 m/s)
Visibility: 6 or more miles (10+ km)
Ceiling: at least 12,000 feet AGL
Clouds: few clouds at 1700 feet AGL
scattered clouds at 2000 feet AGL
Weather: no significant weather forecast for this period

 AIRPORT MAP

 RUNWAY INFORMATION
Runway 11 Runway length 10171 ft Runway width 148 ft
Runway elevation 4197 ft Runway displaced threshold 0 ft Runway heading 99
Runway 29 Runway length 10171 ft Runway width 148 ft
Runway elevation 4117 ft Runway displaced threshold 0 ft Runway heading 279

 AIRPORT FREQUENCIES
Type TWR Name TWR Frequency 120.1 MHZ

 AIRPORT NEAR NAVIGATION AIDS
Type VOR-DME Name Ivato Frequency 114500 KHZ





Powered by Virtual Airlines Manager

Maps by Rafael Santos